sensor_id;sensor_type;location;lat;lon;timestamp;pressure;altitude;pressure_sealevel;temperature;humidity
22688;BME280;11511;51.514;7.080;2023-12-07T00:00:22;101486.38;;;-0.76;100.00
22688;BME280;11511;51.514;7.080;2023-12-07T00:02:47;101492.34;;;-0.79;100.00
22688;BME280;11511;51.514;7.080;2023-12-07T00:05:12;101495.16;;;-0.32;100.00
22688;BME280;11511;51.514;7.080;2023-12-07T00:07:37;101499.16;;;-0.46;100.00
22688;BME280;11511;51.514;7.080;2023-12-07T00:10:03;101493.06;;;-0.48;100.00
22688;BME280;11511;51.514;7.080;2023-12-07T00:12:28;101495.97;;;-0.35;100.00
22688;BME280;11511;51.514;7.080;2023-12-07T00:14:53;101504.03;;;-0.19;100.00
22688;BME280;11511;51.514;7.080;2023-12-07T00:17:18;101497.94;;;-0.23;100.00
22688;BME280;11511;51.514;7.080;2023-12-07T00:19:44;101501.38;;;-0.22;100.00
22688;BME280;11511;51.514;7.080;2023-12-07T00:22:09;101494.72;;;-0.11;100.00
22688;BME280;11511;51.514;7.080;2023-12-07T00:24:34;101498.88;;;-0.19;100.00
22688;BME280;11511;51.514;7.080;2023-12-07T00:26:59;101494.94;;;-0.02;100.00
22688;BME280;11511;51.514;7.080;2023-12-07T00:29:25;101498.31;;;-0.06;100.00
22688;BME280;11511;51.514;7.080;2023-12-07T00:31:50;101500.09;;;-0.04;100.00
22688;BME280;11511;51.514;7.080;2023-12-07T00:34:16;101500.06;;;-0.05;100.00
22688;BME280;11511;51.514;7.080;2023-12-07T00:36:43;101503.72;;;0.06;100.00
22688;BME280;11511;51.514;7.080;2023-12-07T00:39:09;101501.09;;;0.05;100.00
22688;BME280;11511;51.514;7.080;2023-12-07T00:41:35;101501.25;;;0.12;100.00
22688;BME280;11511;51.514;7.080;2023-12-07T00:44:00;101490.66;;;0.02;100.00
22688;BME280;11511;51.514;7.080;2023-12-07T00:46:25;101487.25;;;0.04;100.00
22688;BME280;11511;51.514;7.080;2023-12-07T00:48:51;101489.78;;;0.01;100.00
22688;BME280;11511;51.514;7.080;2023-12-07T00:51:16;101491.50;;;0.00;100.00
22688;BME280;11511;51.514;7.080;2023-12-07T00:53:41;101485.47;;;0.00;100.00
22688;BME280;11511;51.514;7.080;2023-12-07T00:56:06;101490.84;;;0.11;100.00
22688;BME280;11511;51.514;7.080;2023-12-07T00:58:32;101487.38;;;0.09;100.00
22688;BME280;11511;51.514;7.080;2023-12-07T01:00:57;101494.34;;;0.13;100.00
22688;BME280;11511;51.514;7.080;2023-12-07T01:03:22;101500.50;;;0.18;100.00
22688;BME280;11511;51.514;7.080;2023-12-07T01:05:47;101505.56;;;0.12;100.00
22688;BME280;11511;51.514;7.080;2023-12-07T01:08:13;101498.63;;;0.11;100.00
22688;BME280;11511;51.514;7.080;2023-12-07T01:10:38;101508.25;;;0.16;100.00
22688;BME280;11511;51.514;7.080;2023-12-07T01:13:04;101509.19;;;0.20;100.00
22688;BME280;11511;51.514;7.080;2023-12-07T01:15:29;101512.38;;;0.08;100.00
22688;BME280;11511;51.514;7.080;2023-12-07T01:17:54;101513.66;;;-0.14;100.00
22688;BME280;11511;51.514;7.080;2023-12-07T01:20:19;101508.13;;;-0.68;100.00
22688;BME280;11511;51.514;7.080;2023-12-07T01:22:45;101509.63;;;-1.14;100.00
22688;BME280;11511;51.514;7.080;2023-12-07T01:25:11;101509.09;;;-1.33;100.00
22688;BME280;11511;51.514;7.080;2023-12-07T01:27:36;101509.41;;;-1.54;100.00
22688;BME280;11511;51.514;7.080;2023-12-07T01:30:02;101512.53;;;-1.66;100.00
22688;BME280;11511;51.514;7.080;2023-12-07T01:32:28;101511.44;;;-1.74;100.00
22688;BME280;11511;51.514;7.080;2023-12-07T01:34:53;101509.47;;;-1.83;100.00
22688;BME280;11511;51.514;7.080;2023-12-07T01:37:19;101516.13;;;-1.92;100.00
22688;BME280;11511;51.514;7.080;2023-12-07T01:39:44;101512.56;;;-1.96;100.00
22688;BME280;11511;51.514;7.080;2023-12-07T01:42:09;101513.25;;;-1.72;100.00
22688;BME280;11511;51.514;7.080;2023-12-07T01:44:37;101521.91;;;-1.38;100.00
22688;BME280;11511;51.514;7.080;2023-12-07T01:47:02;101532.88;;;-1.14;100.00
22688;BME280;11511;51.514;7.080;2023-12-07T01:49:27;101524.03;;;-0.89;100.00
22688;BME280;11511;51.514;7.080;2023-12-07T01:51:53;101520.81;;;-0.79;100.00
22688;BME280;11511;51.514;7.080;2023-12-07T01:54:19;101530.50;;;-0.70;100.00
22688;BME280;11511;51.514;7.080;2023-12-07T01:56:44;101535.22;;;-0.52;100.00
22688;BME280;11511;51.514;7.080;2023-12-07T01:59:10;101534.53;;;-0.45;100.00
22688;BME280;11511;51.514;7.080;2023-12-07T02:01:35;101538.22;;;-0.36;100.00
22688;BME280;11511;51.514;7.080;2023-12-07T02:04:01;101534.97;;;-0.25;100.00
22688;BME280;11511;51.514;7.080;2023-12-07T02:06:26;101526.44;;;-0.21;100.00
22688;BME280;11511;51.514;7.080;2023-12-07T02:08:51;101527.38;;;-0.18;100.00
22688;BME280;11511;51.514;7.080;2023-12-07T02:11:16;101529.19;;;-0.14;100.00
22688;BME280;11511;51.514;7.080;2023-12-07T02:13:43;101524.91;;;-0.13;100.00
22688;BME280;11511;51.514;7.080;2023-12-07T02:16:21;101526.75;;;-0.08;100.00
22688;BME280;11511;51.514;7.080;2023-12-07T02:18:53;101537.16;;;-0.06;100.00
22688;BME280;11511;51.514;7.080;2023-12-07T02:21:30;101531.16;;;-0.04;100.00
22688;BME280;11511;51.514;7.080;2023-12-07T02:23:56;101538.09;;;-0.03;100.00
22688;BME280;11511;51.514;7.080;2023-12-07T02:26:27;101536.41;;;-0.01;100.00
22688;BME280;11511;51.514;7.080;2023-12-07T02:28:55;101540.72;;;0.00;100.00
22688;BME280;11511;51.514;7.080;2023-12-07T02:31:20;101543.34;;;0.02;100.00
22688;BME280;11511;51.514;7.080;2023-12-07T02:33:46;101547.63;;;0.00;100.00
22688;BME280;11511;51.514;7.080;2023-12-07T02:36:15;101548.56;;;0.04;100.00
22688;BME280;11511;51.514;7.080;2023-12-07T02:38:45;101551.31;;;0.11;100.00
22688;BME280;11511;51.514;7.080;2023-12-07T02:41:11;101554.75;;;0.10;100.00
22688;BME280;11511;51.514;7.080;2023-12-07T02:43:37;101548.78;;;0.14;100.00
22688;BME280;11511;51.514;7.080;2023-12-07T02:46:03;101552.25;;;0.15;100.00
22688;BME280;11511;51.514;7.080;2023-12-07T02:48:29;101562.66;;;0.16;100.00
22688;BME280;11511;51.514;7.080;2023-12-07T02:50:56;101554.06;;;0.19;100.00
22688;BME280;11511;51.514;7.080;2023-12-07T02:53:22;101554.94;;;0.19;100.00
22688;BME280;11511;51.514;7.080;2023-12-07T02:55:48;101551.47;;;0.19;100.00
22688;BME280;11511;51.514;7.080;2023-12-07T02:58:13;101543.75;;;0.20;100.00
22688;BME280;11511;51.514;7.080;2023-12-07T03:00:39;101544.66;;;0.22;100.00
22688;BME280;11511;51.514;7.080;2023-12-07T03:03:05;101544.66;;;0.22;100.00
22688;BME280;11511;51.514;7.080;2023-12-07T03:05:31;101546.41;;;0.23;100.00
22688;BME280;11511;51.514;7.080;2023-12-07T03:07:57;101544.78;;;0.30;100.00
22688;BME280;11511;51.514;7.080;2023-12-07T03:10:23;101547.34;;;0.28;100.00
22688;BME280;11511;51.514;7.080;2023-12-07T03:12:51;101536.16;;;0.31;100.00
22688;BME280;11511;51.514;7.080;2023-12-07T03:15:17;101534.41;;;0.30;100.00
22688;BME280;11511;51.514;7.080;2023-12-07T03:17:43;101538.88;;;0.37;100.00
22688;BME280;11511;51.514;7.080;2023-12-07T03:20:09;101531.09;;;0.37;100.00
22688;BME280;11511;51.514;7.080;2023-12-07T03:22:36;101532.00;;;0.39;100.00
22688;BME280;11511;51.514;7.080;2023-12-07T03:25:02;101536.34;;;0.40;100.00
22688;BME280;11511;51.514;7.080;2023-12-07T03:27:29;101529.50;;;0.44;100.00
22688;BME280;11511;51.514;7.080;2023-12-07T03:29:55;101528.56;;;0.40;100.00
22688;BME280;11511;51.514;7.080;2023-12-07T03:32:21;101532.03;;;0.41;100.00
22688;BME280;11511;51.514;7.080;2023-12-07T03:34:47;101537.25;;;0.42;100.00
22688;BME280;11511;51.514;7.080;2023-12-07T03:37:13;101539.00;;;0.43;100.00
22688;BME280;11511;51.514;7.080;2023-12-07T03:39:40;101538.16;;;0.44;100.00
22688;BME280;11511;51.514;7.080;2023-12-07T03:42:06;101542.50;;;0.45;100.00
22688;BME280;11511;51.514;7.080;2023-12-07T03:44:31;101550.41;;;0.51;100.00
22688;BME280;11511;51.514;7.080;2023-12-07T03:46:57;101547.81;;;0.51;100.00
22688;BME280;11511;51.514;7.080;2023-12-07T03:49:23;101547.00;;;0.55;100.00
22688;BME280;11511;51.514;7.080;2023-12-07T03:51:49;101544.28;;;0.48;100.00
22688;BME280;11511;51.514;7.080;2023-12-07T03:54:15;101548.72;;;0.53;100.00
22688;BME280;11511;51.514;7.080;2023-12-07T03:56:40;101554.72;;;0.51;100.00
22688;BME280;11511;51.514;7.080;2023-12-07T03:59:06;101559.16;;;0.58;100.00
22688;BME280;11511;51.514;7.080;2023-12-07T04:01:32;101554.72;;;0.51;100.00
22688;BME280;11511;51.514;7.080;2023-12-07T04:03:57;101559.00;;;0.49;100.00
22688;BME280;11511;51.514;7.080;2023-12-07T04:06:24;101556.44;;;0.50;100.00
22688;BME280;11511;51.514;7.080;2023-12-07T04:08:50;101557.34;;;0.52;100.00
22688;BME280;11511;51.514;7.080;2023-12-07T04:11:16;101562.59;;;0.57;100.00
22688;BME280;11511;51.514;7.080;2023-12-07T04:13:44;101562.63;;;0.58;100.00
22688;BME280;11511;51.514;7.080;2023-12-07T04:16:09;101564.47;;;0.64;100.00
22688;BME280;11511;51.514;7.080;2023-12-07T04:18:35;101559.28;;;0.64;100.00
22688;BME280;11511;51.514;7.080;2023-12-07T04:21:01;101556.69;;;0.64;100.00
22688;BME280;11511;51.514;7.080;2023-12-07T04:23:28;101557.56;;;0.64;100.00
22688;BME280;11511;51.514;7.080;2023-12-07T04:25:53;101555.06;;;0.69;100.00
22688;BME280;11511;51.514;7.080;2023-12-07T04:28:21;101566.41;;;0.74;100.00
22688;BME280;11511;51.514;7.080;2023-12-07T04:30:47;101562.94;;;0.74;100.00
22688;BME280;11511;51.514;7.080;2023-12-07T04:33:13;101567.28;;;0.76;100.00
22688;BME280;11511;51.514;7.080;2023-12-07T04:35:39;101576.84;;;0.79;100.00
22688;BME280;11511;51.514;7.080;2023-12-07T04:38:07;101578.56;;;0.78;100.00
22688;BME280;11511;51.514;7.080;2023-12-07T04:40:33;101582.06;;;0.80;100.00
22688;BME280;11511;51.514;7.080;2023-12-07T04:42:59;101584.72;;;0.85;100.00
22688;BME280;11511;51.514;7.080;2023-12-07T04:45:24;101583.88;;;0.86;100.00
22688;BME280;11511;51.514;7.080;2023-12-07T04:47:50;101583.97;;;0.90;100.00
22688;BME280;11511;51.514;7.080;2023-12-07T04:50:16;101582.25;;;0.91;100.00
22688;BME280;11511;51.514;7.080;2023-12-07T04:52:45;101577.94;;;0.91;100.00
22688;BME280;11511;51.514;7.080;2023-12-07T04:55:10;101580.53;;;0.91;100.00
22688;BME280;11511;51.514;7.080;2023-12-07T04:57:36;101577.94;;;0.91;100.00
22688;BME280;11511;51.514;7.080;2023-12-07T05:00:02;101573.63;;;0.92;100.00
22688;BME280;11511;51.514;7.080;2023-12-07T05:02:35;101566.81;;;0.97;100.00
22688;BME280;11511;51.514;7.080;2023-12-07T05:05:02;101567.56;;;0.91;100.00
22688;BME280;11511;51.514;7.080;2023-12-07T05:07:28;101571.81;;;0.88;100.00
22688;BME280;11511;51.514;7.080;2023-12-07T05:09:54;101575.16;;;0.82;100.00
22688;BME280;11511;51.514;7.080;2023-12-07T05:12:23;101580.38;;;0.84;100.00
22688;BME280;11511;51.514;7.080;2023-12-07T05:14:50;101579.63;;;0.89;100.00
22688;BME280;11511;51.514;7.080;2023-12-07T05:17:15;101581.34;;;0.89;100.00
22688;BME280;11511;51.514;7.080;2023-12-07T05:19:41;101580.41;;;0.85;100.00
22688;BME280;11511;51.514;7.080;2023-12-07T05:22:08;101577.78;;;0.84;100.00
22688;BME280;11511;51.514;7.080;2023-12-07T05:24:34;101581.34;;;0.89;100.00
22688;BME280;11511;51.514;7.080;2023-12-07T05:27:00;101582.38;;;0.97;100.00
22688;BME280;11511;51.514;7.080;2023-12-07T05:29:26;101582.38;;;0.97;100.00
22688;BME280;11511;51.514;7.080;2023-12-07T05:31:51;101580.47;;;0.88;100.00
22688;BME280;11511;51.514;7.080;2023-12-07T05:34:17;101582.19;;;0.88;100.00
22688;BME280;11511;51.514;7.080;2023-12-07T05:36:43;101586.56;;;0.90;100.00
22688;BME280;11511;51.514;7.080;2023-12-07T05:39:09;101593.31;;;0.81;100.00
22688;BME280;11511;51.514;7.080;2023-12-07T05:41:36;101588.94;;;0.78;100.00
22688;BME280;11511;51.514;7.080;2023-12-07T05:44:02;101589.16;;;0.90;100.00
22688;BME280;11511;51.514;7.080;2023-12-07T05:46:31;101590.22;;;1.00;100.00
22688;BME280;11511;51.514;7.080;2023-12-07T05:48:58;101589.44;;;1.06;100.00
22688;BME280;11511;51.514;7.080;2023-12-07T05:51:24;101591.28;;;1.13;100.00
22688;BME280;11511;51.514;7.080;2023-12-07T05:53:49;101583.53;;;1.14;100.00
22688;BME280;11511;51.514;7.080;2023-12-07T05:56:19;101584.38;;;1.13;100.00
22688;BME280;11511;51.514;7.080;2023-12-07T05:58:45;101579.38;;;1.24;100.00
22688;BME280;11511;51.514;7.080;2023-12-07T06:01:10;101576.66;;;1.16;100.00
22688;BME280;11511;51.514;7.080;2023-12-07T06:03:39;101576.66;;;1.18;100.00
22688;BME280;11511;51.514;7.080;2023-12-07T06:06:07;101574.84;;;1.12;100.00
22688;BME280;11511;51.514;7.080;2023-12-07T06:08:33;101576.63;;;1.15;100.00
22688;BME280;11511;51.514;7.080;2023-12-07T06:11:00;101575.75;;;1.14;100.00
22688;BME280;11511;51.514;7.080;2023-12-07T06:13:28;101573.97;;;1.12;100.00
22688;BME280;11511;51.514;7.080;2023-12-07T06:15:54;101565.31;;;1.11;100.00
22688;BME280;11511;51.514;7.080;2023-12-07T06:18:20;101571.28;;;1.06;100.00
22688;BME280;11511;51.514;7.080;2023-12-07T06:20:45;101562.53;;;1.00;100.00
22688;BME280;11511;51.514;7.080;2023-12-07T06:23:11;101565.06;;;0.96;100.00
22688;BME280;11511;51.514;7.080;2023-12-07T06:25:38;101568.50;;;0.95;100.00
22688;BME280;11511;51.514;7.080;2023-12-07T06:28:05;101565.69;;;0.84;100.00
22688;BME280;11511;51.514;7.080;2023-12-07T06:30:33;101561.69;;;0.53;100.00
22688;BME280;11511;51.514;7.080;2023-12-07T06:32:59;101560.69;;;0.47;100.00
22688;BME280;11511;51.514;7.080;2023-12-07T06:35:25;101566.50;;;0.37;100.00
22688;BME280;11511;51.514;7.080;2023-12-07T06:37:50;101565.16;;;0.13;100.00
22688;BME280;11511;51.514;7.080;2023-12-07T06:40:16;101569.22;;;0.02;100.00
22688;BME280;11511;51.514;7.080;2023-12-07T06:42:42;101564.72;;;-0.08;100.00
22688;BME280;11511;51.514;7.080;2023-12-07T06:45:08;101564.91;;;-0.38;100.00
22688;BME280;11511;51.514;7.080;2023-12-07T06:47:37;101552.56;;;-0.48;100.00
22688;BME280;11511;51.514;7.080;2023-12-07T06:50:04;101549.63;;;-0.27;100.00
22688;BME280;11511;51.514;7.080;2023-12-07T06:52:33;101552.03;;;-0.35;100.00
22688;BME280;11511;51.514;7.080;2023-12-07T06:54:59;101555.25;;;-0.45;100.00
22688;BME280;11511;51.514;7.080;2023-12-07T06:57:25;101552.94;;;-0.33;100.00
22688;BME280;11511;51.514;7.080;2023-12-07T06:59:53;101550.94;;;-0.45;100.00
22688;BME280;11511;51.514;7.080;2023-12-07T07:02:18;101552.22;;;-0.63;100.00
22688;BME280;11511;51.514;7.080;2023-12-07T07:04:44;101562.31;;;-0.74;100.00
22688;BME280;11511;51.514;7.080;2023-12-07T07:07:10;101557.69;;;-0.87;100.00
22688;BME280;11511;51.514;7.080;2023-12-07T07:09:36;101557.25;;;-1.04;100.00
22688;BME280;11511;51.514;7.080;2023-12-07T07:12:02;101555.44;;;-1.07;100.00
22688;BME280;11511;51.514;7.080;2023-12-07T07:14:27;101552.06;;;-1.04;100.00
22688;BME280;11511;51.514;7.080;2023-12-07T07:16:53;101551.19;;;-1.05;100.00
22688;BME280;11511;51.514;7.080;2023-12-07T07:19:20;101551.81;;;-0.80;100.00
22688;BME280;11511;51.514;7.080;2023-12-07T07:21:45;101552.69;;;-1.14;100.00
22688;BME280;11511;51.514;7.080;2023-12-07T07:24:11;101556.09;;;-0.81;100.00
22688;BME280;11511;51.514;7.080;2023-12-07T07:26:37;101558.91;;;-0.72;100.00
22688;BME280;11511;51.514;7.080;2023-12-07T07:29:03;101562.94;;;-1.17;100.00
22688;BME280;11511;51.514;7.080;2023-12-07T07:31:29;101554.94;;;-1.26;100.00
22688;BME280;11511;51.514;7.080;2023-12-07T07:33:55;101547.09;;;-1.29;100.00
22688;BME280;11511;51.514;7.080;2023-12-07T07:36:22;101541.59;;;-1.43;100.00
22688;BME280;11511;51.514;7.080;2023-12-07T07:38:47;101542.91;;;-1.57;100.00
22688;BME280;11511;51.514;7.080;2023-12-07T07:41:15;101553.81;;;-1.38;100.00
22688;BME280;11511;51.514;7.080;2023-12-07T07:43:41;101553.72;;;-1.41;100.00
22688;BME280;11511;51.514;7.080;2023-12-07T07:46:06;101539.81;;;-1.13;100.00
22688;BME280;11511;51.514;7.080;2023-12-07T07:48:33;101544.28;;;-1.06;100.00
22688;BME280;11511;51.514;7.080;2023-12-07T07:50:59;101540.84;;;-0.70;100.00
22688;BME280;11511;51.514;7.080;2023-12-07T07:53:27;101546.91;;;-0.70;100.00
22688;BME280;11511;51.514;7.080;2023-12-07T07:55:53;101551.59;;;-0.53;100.00
22688;BME280;11511;51.514;7.080;2023-12-07T07:58:21;101544.84;;;-0.47;100.00
22688;BME280;11511;51.514;7.080;2023-12-07T08:00:47;101540.06;;;-0.68;100.00
22688;BME280;11511;51.514;7.080;2023-12-07T08:03:12;101540.81;;;-0.72;100.00
22688;BME280;11511;51.514;7.080;2023-12-07T08:05:38;101545.78;;;-0.79;100.00
22688;BME280;11511;51.514;7.080;2023-12-07T08:08:03;101547.34;;;-0.87;100.00
22688;BME280;11511;51.514;7.080;2023-12-07T08:10:29;101546.97;;;-0.66;100.00
22688;BME280;11511;51.514;7.080;2023-12-07T08:12:55;101536.28;;;-0.07;100.00
22688;BME280;11511;51.514;7.080;2023-12-07T08:15:21;101536.66;;;-0.29;100.00
22688;BME280;11511;51.514;7.080;2023-12-07T08:17:47;101541.00;;;-0.28;100.00
22688;BME280;11511;51.514;7.080;2023-12-07T08:20:13;101545.09;;;-0.36;100.00
22688;BME280;11511;51.514;7.080;2023-12-07T08:22:40;101555.66;;;-0.27;100.00
22688;BME280;11511;51.514;7.080;2023-12-07T08:25:06;101558.63;;;-0.10;100.00
22688;BME280;11511;51.514;7.080;2023-12-07T08:27:33;101555.75;;;0.17;100.00
22688;BME280;11511;51.514;7.080;2023-12-07T08:29:58;101554.22;;;-0.14;100.00
22688;BME280;11511;51.514;7.080;2023-12-07T08:32:24;101558.00;;;0.02;100.00
22688;BME280;11511;51.514;7.080;2023-12-07T08:34:51;101568.59;;;0.12;100.00
22688;BME280;11511;51.514;7.080;2023-12-07T08:37:17;101555.47;;;0.45;100.00
22688;BME280;11511;51.514;7.080;2023-12-07T08:39:44;101561.22;;;0.32;100.00
22688;BME280;11511;51.514;7.080;2023-12-07T08:42:10;101547.66;;;0.44;100.00
22688;BME280;11511;51.514;7.080;2023-12-07T08:44:36;101557.34;;;0.52;100.00
22688;BME280;11511;51.514;7.080;2023-12-07T08:47:02;101558.31;;;0.59;100.00
22688;BME280;11511;51.514;7.080;2023-12-07T08:49:28;101566.22;;;0.65;100.00
22688;BME280;11511;51.514;7.080;2023-12-07T08:51:53;101575.00;;;0.73;100.00
22688;BME280;11511;51.514;7.080;2023-12-07T08:54:19;101568.09;;;0.72;100.00
22688;BME280;11511;51.514;7.080;2023-12-07T08:56:45;101571.72;;;0.83;100.00
22688;BME280;11511;51.514;7.080;2023-12-07T08:59:11;101566.16;;;1.10;100.00
22688;BME280;11511;51.514;7.080;2023-12-07T09:01:36;101570.94;;;1.37;100.00
22688;BME280;11511;51.514;7.080;2023-12-07T09:04:02;101574.56;;;1.47;100.00
22688;BME280;11511;51.514;7.080;2023-12-07T09:06:28;101580.13;;;1.71;100.00
22688;BME280;11511;51.514;7.080;2023-12-07T09:08:54;101588.19;;;1.88;100.00
22688;BME280;11511;51.514;7.080;2023-12-07T09:11:20;101593.44;;;1.94;100.00
22688;BME280;11511;51.514;7.080;2023-12-07T09:13:46;101597.03;;;2.02;100.00
22688;BME280;11511;51.514;7.080;2023-12-07T09:16:12;101587.03;;;2.31;100.00
22688;BME280;11511;51.514;7.080;2023-12-07T09:18:37;101578.41;;;2.35;100.00
22688;BME280;11511;51.514;7.080;2023-12-07T09:21:03;101576.81;;;2.48;100.00
22688;BME280;11511;51.514;7.080;2023-12-07T09:23:30;101575.25;;;2.62;100.00
22688;BME280;11511;51.514;7.080;2023-12-07T09:26:00;101577.13;;;2.75;100.00
22688;BME280;11511;51.514;7.080;2023-12-07T09:28:25;101577.13;;;2.75;100.00
22688;BME280;11511;51.514;7.080;2023-12-07T09:30:51;101574.59;;;2.81;100.00
22688;BME280;11511;51.514;7.080;2023-12-07T09:33:16;101569.56;;;2.95;100.00
22688;BME280;11511;51.514;7.080;2023-12-07T09:35:44;101573.13;;;3.08;100.00
22688;BME280;11511;51.514;7.080;2023-12-07T09:38:10;101572.31;;;3.12;100.00
22688;BME280;11511;51.514;7.080;2023-12-07T09:40:36;101570.06;;;3.56;100.00
22688;BME280;11511;51.514;7.080;2023-12-07T09:43:02;101564.94;;;3.68;100.00
22688;BME280;11511;51.514;7.080;2023-12-07T09:45:29;101572.03;;;3.90;100.00
22688;BME280;11511;51.514;7.080;2023-12-07T09:47:54;101570.25;;;3.79;100.00
22688;BME280;11511;51.514;7.080;2023-12-07T09:50:21;101562.47;;;3.91;100.00
22688;BME280;11511;51.514;7.080;2023-12-07T09:52:52;101560.59;;;3.67;100.00
22688;BME280;11511;51.514;7.080;2023-12-07T09:55:18;101552.16;;;4.11;100.00
22688;BME280;11511;51.514;7.080;2023-12-07T09:57:47;101547.91;;;4.28;100.00
22688;BME280;11511;51.514;7.080;2023-12-07T10:00:15;101533.88;;;4.00;100.00
22688;BME280;11511;51.514;7.080;2023-12-07T10:02:41;101533.03;;;4.12;100.00
22688;BME280;11511;51.514;7.080;2023-12-07T10:05:14;101522.69;;;4.27;100.00
22688;BME280;11511;51.514;7.080;2023-12-07T10:07:45;101511.50;;;4.64;100.00
22688;BME280;11511;51.514;7.080;2023-12-07T10:10:13;101501.03;;;4.66;100.00
22688;BME280;11511;51.514;7.080;2023-12-07T10:12:59;101497.59;;;4.94;100.00
22688;BME280;11511;51.514;7.080;2023-12-07T10:15:24;101484.53;;;5.37;100.00
22688;BME280;11511;51.514;7.080;2023-12-07T10:17:51;101469.69;;;5.63;100.00
22688;BME280;11511;51.514;7.080;2023-12-07T10:20:18;101468.78;;;5.70;100.00
22688;BME280;11511;51.514;7.080;2023-12-07T10:22:47;101461.91;;;5.21;100.00
22688;BME280;11511;51.514;7.080;2023-12-07T10:25:13;101444.16;;;8.13;100.00
22688;BME280;11511;51.514;7.080;2023-12-07T10:27:42;101432.47;;;12.84;100.00
22688;BME280;11511;51.514;7.080;2023-12-07T10:30:08;101433.53;;;13.57;100.00
22688;BME280;11511;51.514;7.080;2023-12-07T10:32:38;101428.25;;;13.05;100.00
22688;BME280;11511;51.514;7.080;2023-12-07T10:35:07;101436.84;;;14.10;100.00
22688;BME280;11511;51.514;7.080;2023-12-07T10:37:33;101432.41;;;14.10;100.00
22688;BME280;11511;51.514;7.080;2023-12-07T10:39:59;101439.28;;;14.83;100.00
22688;BME280;11511;51.514;7.080;2023-12-07T10:42:24;101430.56;;;15.42;100.00
22688;BME280;11511;51.514;7.080;2023-12-07T10:44:53;101425.25;;;17.63;100.00
22688;BME280;11511;51.514;7.080;2023-12-07T10:47:22;101426.53;;;17.88;100.00
22688;BME280;11511;51.514;7.080;2023-12-07T10:49:48;101427.34;;;16.51;97.83
22688;BME280;11511;51.514;7.080;2023-12-07T10:52:16;101412.13;;;15.98;90.79
22688;BME280;11511;51.514;7.080;2023-12-07T10:54:50;101408.56;;;16.73;86.45
22688;BME280;11511;51.514;7.080;2023-12-07T10:57:19;101408.84;;;17.87;76.57
22688;BME280;11511;51.514;7.080;2023-12-07T10:59:45;101396.97;;;17.60;73.90
22688;BME280;11511;51.514;7.080;2023-12-07T11:02:12;101396.78;;;18.90;67.87
22688;BME280;11511;51.514;7.080;2023-12-07T11:04:38;101398.72;;;15.42;77.68
22688;BME280;11511;51.514;7.080;2023-12-07T11:07:06;101398.03;;;15.77;81.81
22688;BME280;11511;51.514;7.080;2023-12-07T11:09:35;101380.47;;;15.94;79.88
22688;BME280;11511;51.514;7.080;2023-12-07T11:12:07;101381.53;;;15.89;78.87
22688;BME280;11511;51.514;7.080;2023-12-07T11:14:36;101383.13;;;15.34;77.44
22688;BME280;11511;51.514;7.080;2023-12-07T11:17:03;101376.44;;;13.73;86.77
22688;BME280;11511;51.514;7.080;2023-12-07T11:22:01;101364.06;;;15.45;83.72
22688;BME280;11511;51.514;7.080;2023-12-07T11:24:26;101356.41;;;15.59;79.31
22688;BME280;11511;51.514;7.080;2023-12-07T11:26:52;101360.94;;;16.85;75.15
22688;BME280;11511;51.514;7.080;2023-12-07T11:29:23;101357.78;;;16.41;72.22
22688;BME280;11511;51.514;7.080;2023-12-07T11:31:49;101352.72;;;16.54;71.15
22688;BME280;11511;51.514;7.080;2023-12-07T11:34:58;101349.25;;;15.60;73.16
22688;BME280;11511;51.514;7.080;2023-12-07T11:37:04;101337.56;;;14.84;75.81
22688;BME280;11511;51.514;7.080;2023-12-07T11:39:34;101341.31;;;15.97;75.98
22688;BME280;11511;51.514;7.080;2023-12-07T11:42:05;101331.13;;;14.04;79.57
22688;BME280;11511;51.514;7.080;2023-12-07T11:44:34;101317.16;;;14.22;84.48
22688;BME280;11511;51.514;7.080;2023-12-07T11:47:00;101309.50;;;15.19;80.71
22688;BME280;11511;51.514;7.080;2023-12-07T11:49:25;101309.78;;;15.52;78.95
22688;BME280;11511;51.514;7.080;2023-12-07T11:51:51;101301.56;;;14.14;83.55
22688;BME280;11511;51.514;7.080;2023-12-07T11:54:16;101298.91;;;13.93;87.71
22688;BME280;11511;51.514;7.080;2023-12-07T11:56:42;101292.50;;;13.30;93.02
22688;BME280;11511;51.514;7.080;2023-12-07T11:59:08;101289.75;;;13.08;95.11
22688;BME280;11511;51.514;7.080;2023-12-07T12:01:33;101298.53;;;11.76;99.76
22688;BME280;11511;51.514;7.080;2023-12-07T12:03:58;101295.34;;;12.49;100.00
22688;BME280;11511;51.514;7.080;2023-12-07T12:06:24;101286.97;;;12.35;100.00
22688;BME280;11511;51.514;7.080;2023-12-07T12:08:49;101287.81;;;10.91;100.00
22688;BME280;11511;51.514;7.080;2023-12-07T12:11:14;101286.63;;;11.01;100.00
22688;BME280;11511;51.514;7.080;2023-12-07T12:13:40;101284.47;;;12.04;100.00
22688;BME280;11511;51.514;7.080;2023-12-07T12:16:05;101276.28;;;12.64;100.00
22688;BME280;11511;51.514;7.080;2023-12-07T12:18:31;101270.06;;;12.14;100.00
22688;BME280;11511;51.514;7.080;2023-12-07T12:20:57;101275.28;;;11.89;100.00
22688;BME280;11511;51.514;7.080;2023-12-07T12:23:24;101274.50;;;11.56;100.00
22688;BME280;11511;51.514;7.080;2023-12-07T12:25:49;101270.19;;;11.23;100.00
22688;BME280;11511;51.514;7.080;2023-12-07T12:28:15;101272.66;;;10.98;100.00
22688;BME280;11511;51.514;7.080;2023-12-07T12:30:42;101270.94;;;10.30;100.00
22688;BME280;11511;51.514;7.080;2023-12-07T12:33:07;101273.38;;;10.01;100.00
22688;BME280;11511;51.514;7.080;2023-12-07T12:35:32;101269.31;;;9.49;100.00
22688;BME280;11511;51.514;7.080;2023-12-07T12:37:58;101267.78;;;9.37;100.00
22688;BME280;11511;51.514;7.080;2023-12-07T12:40:23;101264.94;;;9.05;100.00
22688;BME280;11511;51.514;7.080;2023-12-07T12:42:49;101259.50;;;8.71;100.00